Time;durP1;ratioP1;P1;durP2;ratioP2;P2;SDS_P1;SDS_P2;PMS_P1;PMS_P2;Temp;Humidity;BMP_temperature;BMP_pressure;BME280_temperature;BME280_humidity;BME280_pressure;Samples;Min_cycle;Max_cycle;Signal;HPM_P1;HPM_P2
2021/10/15 00:00:51;;;;;;;10.38;9.15;;;;;;;;;;2084663;28;20207;-61
2021/10/15 00:01:51;;;;;;;12.30;9.15;;;;;;;;;;2089692;28;20242;-55
2021/10/15 00:02:52;;;;;;;13.77;9.65;;;;;;;;;;2088796;28;20543;-62
2021/10/15 00:03:52;;;;;;;13.32;9.10;;;;;;;;;;2088750;28;20179;-61
2021/10/15 00:04:52;;;;;;;12.30;9.13;;;;;;;;;;2089007;28;20632;-57
2021/10/15 00:05:52;;;;;;;10.07;9.05;;;;;;;;;;2080064;28;20179;-57
2021/10/15 00:06:53;;;;;;;11.57;9.27;;;;;;;;;;2072517;28;20188;-56
2021/10/15 00:07:53;;;;;;;13.77;9.07;;;;;;;;;;2079046;28;20176;-62
2021/10/15 00:08:53;;;;;;;10.40;9.35;;;;;;;;;;2089052;28;20179;-60
2021/10/15 00:09:53;;;;;;;12.63;8.50;;;;;;;;;;2074267;28;20197;-56
2021/10/15 00:10:54;;;;;;;10.60;9.00;;;;;;;;;;2079939;28;20859;-57
2021/10/15 00:11:54;;;;;;;10.65;8.98;;;;;;;;;;2082911;28;20192;-57
2021/10/15 00:12:54;;;;;;;12.10;9.02;;;;;;;;;;2080549;28;20168;-64
2021/10/15 00:13:55;;;;;;;11.60;8.95;;;;;;;;;;2072928;28;20692;-63
2021/10/15 00:14:55;;;;;;;11.90;9.50;;;;;;;;;;2081948;28;20601;-55
2021/10/15 00:15:55;;;;;;;13.38;9.35;;;;;;;;;;2087585;28;20233;-60
2021/10/15 00:16:55;;;;;;;11.07;9.20;;;;;;;;;;2090044;28;20194;-61
2021/10/15 00:17:55;;;;;;;10.73;8.45;;;;;;;;;;2088584;28;20663;-63
2021/10/15 00:18:56;;;;;;;10.02;8.65;;;;;;;;;;2089239;28;20785;-61
2021/10/15 00:19:56;;;;;;;13.65;8.52;;;;;;;;;;2079969;28;20261;-64
2021/10/15 00:20:57;;;;;;;11.55;9.25;;;;;;;;;;2080366;28;20161;-58
2021/10/15 00:21:57;;;;;;;10.43;8.80;;;;;;;;;;2082673;28;20258;-69
2021/10/15 00:22:57;;;;;;;10.73;9.68;;;;;;;;;;2087954;28;20670;-62
2021/10/15 00:23:57;;;;;;;13.10;9.00;;;;;;;;;;2082499;28;20555;-61
2021/10/15 00:24:58;;;;;;;11.57;9.05;;;;;;;;;;2088672;28;20171;-61
2021/10/15 00:25:58;;;;;;;13.20;9.55;;;;;;;;;;2089172;28;20746;-60
2021/10/15 00:26:58;;;;;;;11.30;8.15;;;;;;;;;;2079811;28;20203;-60
2021/10/15 00:27:59;;;;;;;10.75;8.48;;;;;;;;;;2073752;28;20255;-60
2021/10/15 00:28:59;;;;;;;11.07;9.13;;;;;;;;;;2088388;28;20172;-61
2021/10/15 00:29:59;;;;;;;11.65;8.98;;;;;;;;;;2079921;28;20212;-62
2021/10/15 00:31:00;;;;;;;9.57;8.32;;;;;;;;;;2072049;28;20165;-61
2021/10/15 00:32:00;;;;;;;10.73;9.02;;;;;;;;;;2079170;28;20181;-57
2021/10/15 00:33:00;;;;;;;14.10;8.80;;;;;;;;;;2088939;28;20170;-59
2021/10/15 00:34:01;;;;;;;10.93;8.80;;;;;;;;;;2074252;28;20188;-61
2021/10/15 00:35:01;;;;;;;10.90;8.43;;;;;;;;;;2079997;28;20187;-57
2021/10/15 00:36:02;;;;;;;12.80;8.73;;;;;;;;;;2083214;28;20261;-55
2021/10/15 00:37:02;;;;;;;11.35;8.88;;;;;;;;;;2089099;28;20171;-60
2021/10/15 00:38:02;;;;;;;11.68;8.10;;;;;;;;;;2087097;28;20578;-58
2021/10/15 00:39:02;;;;;;;14.50;9.50;;;;;;;;;;2081990;28;20245;-57
2021/10/15 00:40:03;;;;;;;12.38;9.02;;;;;;;;;;2071904;28;20324;-59
2021/10/15 00:41:03;;;;;;;10.50;8.75;;;;;;;;;;2073101;28;20187;-58
2021/10/15 00:42:04;;;;;;;12.93;8.65;;;;;;;;;;2089052;28;20248;-56
2021/10/15 00:43:04;;;;;;;11.90;8.85;;;;;;;;;;2088383;28;20654;-61
2021/10/15 00:44:05;;;;;;;9.23;8.32;;;;;;;;;;2089039;28;20203;-64
2021/10/15 00:45:06;;;;;;;11.50;8.60;;;;;;;;;;2087041;28;20254;-59
2021/10/15 00:46:06;;;;;;;10.45;8.73;;;;;;;;;;2083284;28;20168;-61
2021/10/15 00:47:07;;;;;;;9.48;8.43;;;;;;;;;;2086768;28;20754;-61
2021/10/15 00:48:07;;;;;;;13.35;8.93;;;;;;;;;;2080120;28;20177;-59
2021/10/15 00:49:12;;;;;;;11.52;8.05;;;;;;;;;;2079885;28;20203;-62
2021/10/15 00:50:12;;;;;;;14.75;9.77;;;;;;;;;;2080015;28;20756;-59
2021/10/15 00:51:12;;;;;;;8.75;7.75;;;;;;;;;;2087994;28;20176;-60
2021/10/15 00:52:13;;;;;;;9.90;7.97;;;;;;;;;;2088462;28;20198;-66
2021/10/15 00:53:15;;;;;;;10.63;8.25;;;;;;;;;;2085286;28;20178;-60
2021/10/15 00:54:16;;;;;;;8.45;7.63;;;;;;;;;;2084409;28;20203;-57
2021/10/15 00:55:16;;;;;;;8.77;7.82;;;;;;;;;;2077172;28;20183;-55
2021/10/15 00:56:16;;;;;;;9.73;7.70;;;;;;;;;;2077764;28;20203;-58
2021/10/15 00:57:17;;;;;;;11.20;8.48;;;;;;;;;;2084718;28;20211;-60
2021/10/15 00:58:17;;;;;;;10.07;7.90;;;;;;;;;;2085870;28;20246;-58
2021/10/15 00:59:17;;;;;;;9.27;7.43;;;;;;;;;;2087885;28;22072;-60
2021/10/15 01:00:17;;;;;;;9.50;7.95;;;;;;;;;;2084937;28;20396;-63
2021/10/15 01:01:17;;;;;;;8.63;7.75;;;;;;;;;;2090272;28;20545;-63
2021/10/15 01:02:18;;;;;;;9.15;7.85;;;;;;;;;;2090001;28;20199;-60
2021/10/15 01:03:18;;;;;;;9.07;8.15;;;;;;;;;;2087896;28;20164;-54
2021/10/15 01:04:19;;;;;;;10.18;7.85;;;;;;;;;;2086297;28;20262;-58
2021/10/15 01:05:19;;;;;;;12.52;8.20;;;;;;;;;;2088954;28;20168;-55
2021/10/15 01:06:19;;;;;;;13.27;8.43;;;;;;;;;;2090884;28;20163;-59
2021/10/15 01:07:19;;;;;;;8.82;7.97;;;;;;;;;;2088510;28;20180;-55
2021/10/15 01:08:22;;;;;;;8.95;8.00;;;;;;;;;;2089178;28;20195;-61
2021/10/15 01:09:23;;;;;;;10.90;8.23;;;;;;;;;;2080895;28;20794;-61
2021/10/15 01:10:25;;;;;;;10.32;8.13;;;;;;;;;;2080782;28;20200;-59
2021/10/15 01:11:25;;;;;;;8.52;7.28;;;;;;;;;;2089118;28;20163;-58
2021/10/15 01:12:25;;;;;;;12.65;7.90;;;;;;;;;;2081953;28;20199;-55
2021/10/15 01:13:27;;;;;;;13.23;8.05;;;;;;;;;;2081158;28;20223;-58
2021/10/15 01:14:28;;;;;;;12.32;8.07;;;;;;;;;;2089475;28;20237;-58
2021/10/15 01:15:28;;;;;;;9.63;8.13;;;;;;;;;;2090387;28;20183;-56
2021/10/15 01:16:30;;;;;;;8.63;7.65;;;;;;;;;;2080053;28;20612;-61
2021/10/15 01:17:30;;;;;;;10.55;8.02;;;;;;;;;;2080885;28;20192;-63
2021/10/15 01:18:30;;;;;;;11.07;8.05;;;;;;;;;;2090251;28;20175;-59
2021/10/15 01:19:31;;;;;;;9.48;8.57;;;;;;;;;;2088406;28;20251;-57
2021/10/15 01:20:31;;;;;;;9.00;7.80;;;;;;;;;;2089665;28;20522;-60
2021/10/15 01:21:32;;;;;;;12.85;7.93;;;;;;;;;;2090274;28;20195;-55
2021/10/15 01:22:32;;;;;;;12.27;7.43;;;;;;;;;;2082901;28;20212;-58
2021/10/15 01:23:33;;;;;;;8.93;7.10;;;;;;;;;;2087995;28;20168;-55
2021/10/15 01:24:34;;;;;;;8.50;7.45;;;;;;;;;;2090338;28;20173;-52
2021/10/15 01:25:35;;;;;;;9.00;7.18;;;;;;;;;;2089771;28;20183;-56
2021/10/15 01:26:35;;;;;;;8.70;6.75;;;;;;;;;;2082222;28;20172;-62
2021/10/15 01:27:36;;;;;;;8.38;7.50;;;;;;;;;;2089615;28;20184;-55
2021/10/15 01:28:36;;;;;;;8.63;6.85;;;;;;;;;;2090887;28;20270;-56
2021/10/15 01:29:37;;;;;;;12.73;7.30;;;;;;;;;;2081120;28;20254;-58
2021/10/15 01:30:37;;;;;;;10.18;7.72;;;;;;;;;;2076225;28;20649;-60
2021/10/15 01:31:38;;;;;;;10.65;7.70;;;;;;;;;;2089254;28;20266;-57
2021/10/15 01:32:38;;;;;;;9.90;8.02;;;;;;;;;;2090809;28;20172;-56
2021/10/15 01:33:38;;;;;;;8.25;7.32;;;;;;;;;;2075462;28;20207;-56
2021/10/15 01:34:38;;;;;;;11.48;7.88;;;;;;;;;;2079955;28;20172;-55
2021/10/15 01:35:39;;;;;;;10.02;7.35;;;;;;;;;;2086025;28;20180;-54
2021/10/15 01:36:39;;;;;;;10.57;7.10;;;;;;;;;;2080916;28;20291;-56
2021/10/15 01:37:39;;;;;;;11.07;8.05;;;;;;;;;;2081656;28;20625;-59
2021/10/15 01:38:40;;;;;;;7.95;6.93;;;;;;;;;;2077076;28;20181;-59
2021/10/15 01:39:40;;;;;;;8.13;6.88;;;;;;;;;;2079801;28;20588;-59
2021/10/15 01:40:40;;;;;;;10.20;6.97;;;;;;;;;;2090105;28;20593;-55
2021/10/15 01:41:41;;;;;;;8.77;7.18;;;;;;;;;;2090164;28;20190;-55
2021/10/15 01:42:54;;;;;;;10.05;7.18;;;;;;;;;;2090187;28;20580;-57
2021/10/15 01:43:54;;;;;;;10.20;7.35;;;;;;;;;;2086057;28;20333;-58
2021/10/15 01:44:55;;;;;;;11.45;7.05;;;;;;;;;;2090932;28;20172;-57
2021/10/15 01:45:55;;;;;;;9.35;7.35;;;;;;;;;;2089987;28;20242;-55
2021/10/15 01:46:56;;;;;;;8.57;7.18;;;;;;;;;;2081913;28;20195;-59
2021/10/15 01:47:56;;;;;;;8.27;7.38;;;;;;;;;;2081341;28;20168;-63
2021/10/15 01:48:57;;;;;;;11.68;7.82;;;;;;;;;;2080566;28;20854;-54
2021/10/15 01:49:57;;;;;;;9.32;7.60;;;;;;;;;;2081691;28;20208;-57
2021/10/15 01:50:57;;;;;;;11.23;7.10;;;;;;;;;;2090339;28;20164;-56
2021/10/15 01:51:58;;;;;;;8.73;6.90;;;;;;;;;;2090589;28;20176;-54
2021/10/15 01:52:59;;;;;;;10.02;7.07;;;;;;;;;;2081784;28;20608;-60
2021/10/15 01:54:00;;;;;;;7.65;6.95;;;;;;;;;;2081918;28;20195;-56
2021/10/15 01:55:00;;;;;;;9.65;7.13;;;;;;;;;;2084524;28;20168;-57
2021/10/15 01:56:00;;;;;;;8.35;6.95;;;;;;;;;;2089150;28;20198;-56
2021/10/15 01:57:00;;;;;;;8.10;6.47;;;;;;;;;;2089962;28;20176;-60
2021/10/15 01:58:01;;;;;;;9.20;6.97;;;;;;;;;;2081339;28;20199;-63
2021/10/15 01:59:03;;;;;;;9.25;6.63;;;;;;;;;;2080986;28;20813;-56
2021/10/15 02:00:06;;;;;;;7.95;6.70;;;;;;;;;;2090043;28;20261;-60
2021/10/15 02:01:12;;;;;;;11.23;7.18;;;;;;;;;;2089480;28;20196;-59
2021/10/15 02:02:12;;;;;;;8.35;6.40;;;;;;;;;;2089260;28;20199;-57
2021/10/15 02:03:12;;;;;;;8.43;6.88;;;;;;;;;;2081380;28;20222;-58
2021/10/15 02:04:12;;;;;;;7.95;6.72;;;;;;;;;;2080642;28;20172;-58
2021/10/15 02:05:17;;;;;;;8.80;6.40;;;;;;;;;;2085213;28;20196;-57
2021/10/15 02:06:19;;;;;;;6.95;6.22;;;;;;;;;;2088031;28;20162;-58
2021/10/15 02:07:19;;;;;;;8.77;6.63;;;;;;;;;;2088935;28;20175;-59
2021/10/15 02:08:20;;;;;;;7.15;6.18;;;;;;;;;;2082683;28;20271;-60
2021/10/15 02:09:20;;;;;;;6.43;5.43;;;;;;;;;;2086735;28;20160;-59
2021/10/15 02:10:21;;;;;;;7.00;6.20;;;;;;;;;;2088972;28;20210;-57
2021/10/15 02:11:23;;;;;;;10.50;6.65;;;;;;;;;;2089622;28;20581;-56
2021/10/15 02:12:23;;;;;;;11.10;6.60;;;;;;;;;;2089581;28;20266;-56
2021/10/15 02:13:24;;;;;;;7.85;5.80;;;;;;;;;;2090360;28;20237;-61
2021/10/15 02:14:24;;;;;;;8.68;6.38;;;;;;;;;;2089832;28;20172;-59
2021/10/15 02:15:24;;;;;;;7.35;6.10;;;;;;;;;;2090228;28;20308;-61
2021/10/15 02:16:24;;;;;;;7.03;6.10;;;;;;;;;;2087061;28;20168;-59
2021/10/15 02:17:25;;;;;;;7.03;6.32;;;;;;;;;;2090106;28;20577;-55
2021/10/15 02:18:25;;;;;;;6.70;5.72;;;;;;;;;;2090569;28;20202;-62
2021/10/15 02:19:26;;;;;;;8.82;6.35;;;;;;;;;;2090297;28;20203;-58
2021/10/15 02:20:26;;;;;;;9.02;6.35;;;;;;;;;;2090266;28;20217;-60
2021/10/15 02:21:26;;;;;;;7.00;5.43;;;;;;;;;;2090402;28;20167;-62
2021/10/15 02:22:26;;;;;;;8.82;6.20;;;;;;;;;;2090498;28;20203;-60
2021/10/15 02:23:27;;;;;;;8.05;5.82;;;;;;;;;;2090515;28;20246;-59
2021/10/15 02:24:27;;;;;;;6.15;5.55;;;;;;;;;;2090639;28;20175;-57
2021/10/15 02:25:28;;;;;;;9.43;6.40;;;;;;;;;;2090111;28;20155;-58
2021/10/15 02:26:28;;;;;;;10.73;6.85;;;;;;;;;;2090351;28;20183;-57
2021/10/15 02:27:28;;;;;;;6.38;5.63;;;;;;;;;;2090348;28;20170;-54
2021/10/15 02:28:28;;;;;;;7.03;5.68;;;;;;;;;;2090462;28;20172;-63
2021/10/15 02:29:29;;;;;;;6.50;5.78;;;;;;;;;;2081508;28;20173;-62
2021/10/15 02:30:29;;;;;;;6.80;6.10;;;;;;;;;;2081171;28;20475;-56
2021/10/15 02:31:31;;;;;;;6.35;5.70;;;;;;;;;;2081802;28;20173;-58
2021/10/15 02:32:32;;;;;;;6.60;5.88;;;;;;;;;;2090432;28;20183;-56
2021/10/15 02:33:32;;;;;;;7.25;5.85;;;;;;;;;;2090453;28;20251;-54
2021/10/15 02:34:33;;;;;;;7.68;6.05;;;;;;;;;;2090478;28;20176;-57
2021/10/15 02:35:34;;;;;;;7.82;6.22;;;;;;;;;;2089569;28;20221;-55
2021/10/15 02:36:34;;;;;;;7.60;5.82;;;;;;;;;;2087811;28;20282;-54
2021/10/15 02:37:34;;;;;;;6.82;6.13;;;;;;;;;;2090251;28;20186;-56
2021/10/15 02:38:34;;;;;;;6.38;5.78;;;;;;;;;;2090486;28;20606;-56
2021/10/15 02:39:35;;;;;;;8.38;5.63;;;;;;;;;;2085310;28;20250;-55
2021/10/15 02:40:35;;;;;;;6.80;5.90;;;;;;;;;;2077615;28;20164;-55
2021/10/15 02:41:37;;;;;;;6.68;5.90;;;;;;;;;;2070847;28;20268;-58
2021/10/15 02:42:38;;;;;;;5.90;5.40;;;;;;;;;;2081275;28;20331;-60
2021/10/15 02:43:39;;;;;;;6.53;5.65;;;;;;;;;;2083720;28;20385;-55
2021/10/15 02:44:39;;;;;;;8.35;5.68;;;;;;;;;;2088909;28;20846;-55
2021/10/15 02:45:40;;;;;;;7.35;5.18;;;;;;;;;;2083761;28;20247;-61
2021/10/15 02:46:41;;;;;;;5.45;5.03;;;;;;;;;;2089964;28;20254;-60
2021/10/15 02:47:41;;;;;;;11.43;6.35;;;;;;;;;;2089995;28;20180;-60
2021/10/15 02:48:42;;;;;;;6.93;5.68;;;;;;;;;;2083582;28;20191;-57
2021/10/15 02:49:43;;;;;;;6.50;5.75;;;;;;;;;;2080618;28;20856;-63
2021/10/15 02:50:43;;;;;;;6.55;5.72;;;;;;;;;;2078518;28;20636;-61
2021/10/15 02:51:43;;;;;;;6.65;5.45;;;;;;;;;;2080323;28;20172;-60
2021/10/15 02:52:44;;;;;;;7.35;5.35;;;;;;;;;;2072637;28;20215;-60
2021/10/15 02:53:44;;;;;;;5.72;5.22;;;;;;;;;;2080920;28;20949;-63
2021/10/15 02:54:44;;;;;;;8.10;5.25;;;;;;;;;;2086570;28;20172;-62
2021/10/15 02:55:44;;;;;;;5.13;4.65;;;;;;;;;;2074482;28;20197;-62
2021/10/15 02:56:45;;;;;;;9.30;5.40;;;;;;;;;;2080511;28;20204;-56
2021/10/15 02:57:45;;;;;;;7.18;5.65;;;;;;;;;;2089205;28;20206;-64
2021/10/15 02:58:45;;;;;;;6.50;5.72;;;;;;;;;;2090055;28;20203;-59
2021/10/15 02:59:45;;;;;;;5.78;5.03;;;;;;;;;;2081094;28;20197;-61
2021/10/15 03:00:50;;;;;;;5.90;5.38;;;;;;;;;;2068966;28;20208;-60
2021/10/15 03:01:50;;;;;;;6.30;5.63;;;;;;;;;;2080705;28;20161;-58
2021/10/15 03:02:50;;;;;;;6.25;5.18;;;;;;;;;;2075820;28;20189;-61
2021/10/15 03:03:50;;;;;;;8.10;5.28;;;;;;;;;;2081009;28;20218;-56
2021/10/15 03:04:51;;;;;;;5.15;4.65;;;;;;;;;;2089117;28;20239;-61
2021/10/15 03:05:51;;;;;;;6.28;5.32;;;;;;;;;;2088876;28;20176;-64
2021/10/15 03:06:51;;;;;;;6.38;5.40;;;;;;;;;;2083464;28;20287;-61
2021/10/15 03:07:52;;;;;;;5.38;4.85;;;;;;;;;;2084701;28;20187;-59
2021/10/15 03:08:52;;;;;;;7.47;4.88;;;;;;;;;;2089389;28;20231;-59
2021/10/15 03:09:52;;;;;;;5.78;4.90;;;;;;;;;;2084137;28;20295;-56
2021/10/15 03:10:52;;;;;;;5.97;5.25;;;;;;;;;;2080244;28;20198;-61
2021/10/15 03:11:53;;;;;;;5.18;4.75;;;;;;;;;;2074706;28;20185;-55
2021/10/15 03:12:54;;;;;;;7.78;4.75;;;;;;;;;;2090079;28;20243;-57
2021/10/15 03:13:54;;;;;;;5.32;4.82;;;;;;;;;;2089829;28;20234;-56
2021/10/15 03:14:54;;;;;;;5.78;4.47;;;;;;;;;;2089636;28;20164;-56
2021/10/15 03:15:54;;;;;;;6.60;5.20;;;;;;;;;;2080386;28;20681;-56
2021/10/15 03:16:55;;;;;;;8.32;5.13;;;;;;;;;;2079118;28;20168;-55
2021/10/15 03:17:55;;;;;;;6.82;5.50;;;;;;;;;;2080341;28;20184;-58
2021/10/15 03:18:55;;;;;;;5.40;4.90;;;;;;;;;;2081273;28;20176;-58
2021/10/15 03:19:55;;;;;;;5.38;4.72;;;;;;;;;;2087857;28;20199;-61
2021/10/15 03:20:56;;;;;;;6.28;4.85;;;;;;;;;;2088923;28;20275;-61
2021/10/15 03:21:56;;;;;;;7.32;4.97;;;;;;;;;;2089719;28;20803;-61
2021/10/15 03:22:56;;;;;;;5.13;4.63;;;;;;;;;;2089059;28;20197;-60
2021/10/15 03:23:56;;;;;;;5.97;4.53;;;;;;;;;;2089675;28;20201;-58
2021/10/15 03:24:59;;;;;;;5.10;4.60;;;;;;;;;;2088436;28;20171;-60
2021/10/15 03:26:00;;;;;;;5.70;4.97;;;;;;;;;;2089935;28;20190;-59
2021/10/15 03:27:00;;;;;;;7.97;5.20;;;;;;;;;;2090003;28;20178;-58
2021/10/15 03:28:00;;;;;;;5.90;5.30;;;;;;;;;;2090465;28;20316;-62
2021/10/15 03:29:00;;;;;;;5.18;4.78;;;;;;;;;;2089775;28;20179;-62
2021/10/15 03:30:01;;;;;;;7.25;5.03;;;;;;;;;;2090394;28;20217;-61
2021/10/15 03:31:01;;;;;;;6.10;5.18;;;;;;;;;;2077677;28;20661;-57
2021/10/15 03:32:02;;;;;;;7.00;4.82;;;;;;;;;;2080498;28;20215;-59
2021/10/15 03:33:03;;;;;;;6.85;4.65;;;;;;;;;;2089326;28;20226;-62
2021/10/15 03:34:03;;;;;;;6.70;4.95;;;;;;;;;;2090017;28;20186;-59
2021/10/15 03:35:04;;;;;;;7.03;4.55;;;;;;;;;;2086108;28;20164;-58
2021/10/15 03:36:04;;;;;;;7.65;5.13;;;;;;;;;;2089762;28;20607;-59
2021/10/15 03:37:04;;;;;;;5.00;4.60;;;;;;;;;;2085343;28;20214;-60
2021/10/15 03:38:05;;;;;;;9.00;5.90;;;;;;;;;;2086227;28;20577;-54
2021/10/15 03:39:05;;;;;;;6.40;5.72;;;;;;;;;;2089801;28;20183;-62
2021/10/15 03:40:06;;;;;;;5.50;5.05;;;;;;;;;;2088541;28;20233;-60
2021/10/15 03:41:06;;;;;;;6.22;4.60;;;;;;;;;;2084380;28;20176;-60
2021/10/15 03:42:06;;;;;;;7.63;4.97;;;;;;;;;;2088978;28;20200;-60
2021/10/15 03:43:06;;;;;;;5.93;4.97;;;;;;;;;;2085012;28;20183;-59
2021/10/15 03:44:07;;;;;;;7.13;5.43;;;;;;;;;;2089903;28;20160;-58
2021/10/15 03:45:07;;;;;;;5.80;5.10;;;;;;;;;;2090920;28;20187;-59
2021/10/15 03:46:08;;;;;;;6.45;5.15;;;;;;;;;;2088712;28;20195;-62
2021/10/15 03:47:08;;;;;;;5.82;5.32;;;;;;;;;;2073495;28;20169;-56
2021/10/15 03:48:08;;;;;;;6.18;4.90;;;;;;;;;;2075190;28;20180;-61
2021/10/15 03:49:08;;;;;;;5.85;5.32;;;;;;;;;;2085536;28;20180;-61
2021/10/15 03:50:09;;;;;;;5.63;4.95;;;;;;;;;;2088405;28;20211;-59
2021/10/15 03:51:09;;;;;;;6.95;4.78;;;;;;;;;;2082275;28;20560;-60
2021/10/15 03:52:09;;;;;;;6.07;5.03;;;;;;;;;;2091216;28;20171;-60
2021/10/15 03:53:10;;;;;;;7.85;5.30;;;;;;;;;;2087938;28;20534;-63
2021/10/15 03:54:10;;;;;;;6.65;4.85;;;;;;;;;;2083494;28;20175;-63
2021/10/15 03:55:11;;;;;;;6.60;5.22;;;;;;;;;;2085018;28;20178;-63
2021/10/15 03:56:12;;;;;;;5.65;5.15;;;;;;;;;;2087064;28;20193;-60
2021/10/15 03:57:12;;;;;;;8.15;5.68;;;;;;;;;;2081903;28;20187;-60
2021/10/15 03:58:12;;;;;;;5.43;4.55;;;;;;;;;;2082341;28;20208;-60
2021/10/15 03:59:12;;;;;;;6.10;4.82;;;;;;;;;;2085628;28;20202;-64
2021/10/15 04:00:13;;;;;;;7.22;5.28;;;;;;;;;;2089888;28;20206;-62
2021/10/15 04:01:13;;;;;;;6.57;5.95;;;;;;;;;;2089849;28;20266;-63
2021/10/15 04:02:13;;;;;;;7.05;5.20;;;;;;;;;;2089335;28;20274;-60
2021/10/15 04:03:14;;;;;;;6.32;5.72;;;;;;;;;;2089656;28;20175;-62
2021/10/15 04:04:14;;;;;;;5.40;5.00;;;;;;;;;;2081093;28;20168;-62
2021/10/15 04:05:15;;;;;;;6.55;5.15;;;;;;;;;;2080973;28;20164;-61
2021/10/15 04:06:15;;;;;;;5.53;4.82;;;;;;;;;;2089338;28;20567;-59
2021/10/15 04:07:15;;;;;;;6.40;5.00;;;;;;;;;;2089110;28;20163;-61
2021/10/15 04:08:15;;;;;;;6.45;5.18;;;;;;;;;;2085602;28;20592;-62
2021/10/15 04:09:16;;;;;;;6.72;5.30;;;;;;;;;;2089854;28;20562;-58
2021/10/15 04:10:16;;;;;;;6.03;5.35;;;;;;;;;;2089079;28;20191;-61
2021/10/15 04:11:17;;;;;;;7.88;5.28;;;;;;;;;;2089688;28;20171;-61
2021/10/15 04:12:17;;;;;;;8.15;5.40;;;;;;;;;;2087195;28;20255;-63
2021/10/15 04:13:18;;;;;;;6.20;4.90;;;;;;;;;;2089062;28;20195;-60
2021/10/15 04:14:18;;;;;;;6.95;5.25;;;;;;;;;;2089488;28;20171;-61
2021/10/15 04:15:18;;;;;;;7.18;4.90;;;;;;;;;;2088941;28;20191;-55
2021/10/15 04:16:18;;;;;;;6.03;5.45;;;;;;;;;;2080627;28;20271;-55
2021/10/15 04:17:18;;;;;;;7.40;5.22;;;;;;;;;;2072557;28;20175;-55
2021/10/15 04:18:19;;;;;;;6.55;5.82;;;;;;;;;;2077086;28;20226;-58
2021/10/15 04:19:19;;;;;;;7.30;5.07;;;;;;;;;;2089069;28;20171;-58
2021/10/15 04:20:19;;;;;;;6.30;5.57;;;;;;;;;;2085315;28;20198;-56
2021/10/15 04:21:19;;;;;;;6.13;5.63;;;;;;;;;;2080462;28;20717;-61
2021/10/15 04:22:20;;;;;;;6.32;5.72;;;;;;;;;;2080737;28;20184;-60
2021/10/15 04:23:20;;;;;;;6.32;5.72;;;;;;;;;;2088937;28;20229;-57
2021/10/15 04:24:20;;;;;;;6.88;5.85;;;;;;;;;;2081135;28;20172;-57
2021/10/15 04:25:20;;;;;;;7.88;6.10;;;;;;;;;;2080978;28;20215;-58
2021/10/15 04:26:20;;;;;;;9.15;5.50;;;;;;;;;;2081768;28;20227;-59
2021/10/15 04:27:21;;;;;;;6.80;5.75;;;;;;;;;;2078405;28;20160;-59
2021/10/15 04:28:21;;;;;;;6.82;5.32;;;;;;;;;;2085860;28;20640;-58
2021/10/15 04:29:21;;;;;;;5.45;5.00;;;;;;;;;;2089578;28;20194;-59
2021/10/15 04:30:21;;;;;;;6.10;5.50;;;;;;;;;;2089154;28;20281;-58
2021/10/15 04:31:22;;;;;;;6.88;5.97;;;;;;;;;;2086115;28;20179;-55
2021/10/15 04:32:22;;;;;;;8.90;5.68;;;;;;;;;;2087053;28;20649;-60
2021/10/15 04:33:22;;;;;;;6.63;6.03;;;;;;;;;;2085177;28;20211;-61
2021/10/15 04:34:23;;;;;;;6.88;6.28;;;;;;;;;;2077080;28;20182;-60
2021/10/15 04:35:23;;;;;;;7.85;5.85;;;;;;;;;;2080386;28;20207;-61
2021/10/15 04:36:23;;;;;;;7.30;5.80;;;;;;;;;;2081973;28;20183;-57
2021/10/15 04:37:23;;;;;;;6.28;5.50;;;;;;;;;;2085908;28;20172;-55
2021/10/15 04:38:24;;;;;;;7.75;5.85;;;;;;;;;;2089261;28;20171;-57
2021/10/15 04:39:24;;;;;;;7.97;5.95;;;;;;;;;;2089332;28;20198;-62
2021/10/15 04:40:24;;;;;;;7.05;5.57;;;;;;;;;;2089134;28;20217;-57
2021/10/15 04:41:24;;;;;;;6.57;5.97;;;;;;;;;;2093073;28;20191;-58
2021/10/15 04:42:24;;;;;;;6.85;6.05;;;;;;;;;;2079864;28;20211;-63
2021/10/15 04:43:25;;;;;;;6.57;5.95;;;;;;;;;;2077190;28;20161;-61
2021/10/15 04:44:25;;;;;;;6.78;5.97;;;;;;;;;;2087267;28;20215;-64
2021/10/15 04:45:25;;;;;;;7.93;5.47;;;;;;;;;;2089646;28;20183;-59
2021/10/15 04:46:27;;;;;;;6.43;5.65;;;;;;;;;;2072826;28;20303;-60
2021/10/15 04:47:27;;;;;;;6.53;5.85;;;;;;;;;;2073358;28;20653;-58
2021/10/15 04:48:28;;;;;;;6.72;6.13;;;;;;;;;;2084335;28;20173;-54
2021/10/15 04:49:28;;;;;;;6.95;6.35;;;;;;;;;;2087795;28;20185;-60
2021/10/15 04:50:28;;;;;;;8.43;5.95;;;;;;;;;;2090208;28;20530;-57
2021/10/15 04:51:28;;;;;;;8.73;6.00;;;;;;;;;;2090263;28;20179;-64
2021/10/15 04:52:29;;;;;;;8.20;6.57;;;;;;;;;;2090913;28;20176;-64
2021/10/15 04:53:29;;;;;;;6.65;5.85;;;;;;;;;;2087645;28;20270;-57
2021/10/15 04:54:29;;;;;;;8.27;6.38;;;;;;;;;;2090290;28;20163;-61
2021/10/15 04:55:30;;;;;;;7.97;5.95;;;;;;;;;;2093171;28;20171;-62
2021/10/15 04:56:30;;;;;;;6.53;5.93;;;;;;;;;;2089145;28;20182;-61
2021/10/15 04:57:31;;;;;;;6.32;5.70;;;;;;;;;;2078946;28;20164;-59
2021/10/15 04:58:32;;;;;;;6.30;5.65;;;;;;;;;;2080211;28;20179;-58
2021/10/15 04:59:32;;;;;;;7.47;6.18;;;;;;;;;;2086272;28;20221;-56
2021/10/15 05:00:33;;;;;;;8.18;6.32;;;;;;;;;;2083334;28;20186;-58
2021/10/15 05:01:34;;;;;;;7.95;6.10;;;;;;;;;;2081784;28;20192;-56
2021/10/15 05:02:37;;;;;;;9.98;6.30;;;;;;;;;;2082459;28;20199;-62
2021/10/15 05:03:39;;;;;;;7.00;6.25;;;;;;;;;;2085349;28;20184;-57
2021/10/15 05:04:42;;;;;;;8.60;6.32;;;;;;;;;;2081221;28;20737;-56
2021/10/15 05:05:43;;;;;;;7.50;5.97;;;;;;;;;;2086486;28;20298;-61
2021/10/15 05:06:43;;;;;;;7.32;6.53;;;;;;;;;;2091424;28;20190;-61
2021/10/15 05:07:43;;;;;;;7.55;6.85;;;;;;;;;;2081925;28;20268;-60
2021/10/15 05:09:01;;;;;;;9.95;6.32;;;;;;;;;;2081079;28;20728;-62
2021/10/15 05:10:04;;;;;;;10.10;6.93;;;;;;;;;;2084306;28;20679;-62
2021/10/15 05:11:04;;;;;;;7.05;6.15;;;;;;;;;;2089585;28;20248;-59
2021/10/15 05:12:05;;;;;;;7.60;6.90;;;;;;;;;;2073742;28;20179;-58
2021/10/15 05:13:06;;;;;;;9.88;6.80;;;;;;;;;;2073131;28;20226;-61
2021/10/15 05:14:06;;;;;;;7.10;6.35;;;;;;;;;;2083451;28;20222;-57
2021/10/15 05:15:10;;;;;;;7.60;6.35;;;;;;;;;;2085879;28;20170;-57
2021/10/15 05:16:10;;;;;;;9.20;7.10;;;;;;;;;;2091920;28;20190;-59
2021/10/15 05:17:10;;;;;;;8.98;6.88;;;;;;;;;;2090558;28;20247;-58
2021/10/15 05:18:14;;;;;;;7.75;6.32;;;;;;;;;;2091880;28;20163;-65
2021/10/15 05:19:14;;;;;;;8.45;6.63;;;;;;;;;;2091386;28;20241;-62
2021/10/15 05:20:17;;;;;;;8.00;7.20;;;;;;;;;;2091001;28;20222;-61
2021/10/15 05:21:18;;;;;;;7.85;7.05;;;;;;;;;;2089598;28;20183;-59
2021/10/15 05:22:18;;;;;;;9.48;6.82;;;;;;;;;;2091025;28;20867;-62
2021/10/15 05:23:18;;;;;;;7.85;6.85;;;;;;;;;;2079374;28;20218;-60
2021/10/15 05:24:19;;;;;;;8.05;6.53;;;;;;;;;;2082064;28;20172;-64
2021/10/15 05:25:19;;;;;;;10.00;6.78;;;;;;;;;;2087963;28;20221;-59
2021/10/15 05:26:19;;;;;;;10.40;7.43;;;;;;;;;;2090969;28;20233;-61
2021/10/15 05:27:20;;;;;;;8.82;7.93;;;;;;;;;;2090237;28;20191;-65
2021/10/15 05:28:20;;;;;;;8.77;7.72;;;;;;;;;;2082126;28;20165;-57
2021/10/15 05:29:20;;;;;;;7.88;7.07;;;;;;;;;;2083628;28;20815;-58
2021/10/15 05:30:21;;;;;;;11.13;7.15;;;;;;;;;;2093884;23;20222;-52
2021/10/15 05:31:21;;;;;;;8.60;7.22;;;;;;;;;;2069024;28;20232;-51
2021/10/15 05:32:21;;;;;;;7.72;6.85;;;;;;;;;;2077986;28;20172;-51
2021/10/15 05:33:21;;;;;;;8.43;7.45;;;;;;;;;;2062629;28;20677;-52
2021/10/15 05:34:22;;;;;;;10.65;7.57;;;;;;;;;;2065762;28;20192;-51
2021/10/15 05:35:22;;;;;;;11.15;7.68;;;;;;;;;;2076251;28;20183;-55
2021/10/15 05:36:22;;;;;;;9.35;8.00;;;;;;;;;;2074048;28;20173;-54
2021/10/15 05:37:22;;;;;;;9.93;8.07;;;;;;;;;;2073446;28;20537;-51
2021/10/15 05:38:23;;;;;;;12.40;7.68;;;;;;;;;;2064940;28;20198;-55
2021/10/15 05:39:23;;;;;;;10.68;7.68;;;;;;;;;;2051243;28;20241;-51
2021/10/15 05:40:23;;;;;;;12.13;8.65;;;;;;;;;;2060060;28;20208;-51
2021/10/15 05:41:23;;;;;;;9.93;7.82;;;;;;;;;;2071046;28;20328;-52
2021/10/15 05:42:24;;;;;;;14.25;8.02;;;;;;;;;;2072888;28;20224;-53
2021/10/15 05:43:24;;;;;;;8.40;7.00;;;;;;;;;;2076317;28;20160;-52
2021/10/15 05:44:24;;;;;;;10.02;8.20;;;;;;;;;;2064971;28;20174;-54
2021/10/15 05:45:26;;;;;;;9.57;7.63;;;;;;;;;;2066978;28;20216;-53
2021/10/15 05:46:26;;;;;;;12.93;8.40;;;;;;;;;;2064383;28;20170;-56
2021/10/15 05:47:26;;;;;;;8.50;7.70;;;;;;;;;;2062537;28;20693;-54
2021/10/15 05:48:26;;;;;;;13.30;8.40;;;;;;;;;;2065308;28;20221;-51
2021/10/15 05:49:27;;;;;;;10.77;7.53;;;;;;;;;;2079173;28;20195;-53
2021/10/15 05:50:29;;;;;;;10.00;8.60;;;;;;;;;;2060125;28;20270;-53
2021/10/15 05:51:30;;;;;;;10.23;7.93;;;;;;;;;;2063289;28;20220;-52
2021/10/15 05:52:34;;;;;;;9.25;7.93;;;;;;;;;;2073635;28;20884;-51
2021/10/15 05:53:35;;;;;;;9.70;8.80;;;;;;;;;;2080294;28;20241;-51
2021/10/15 05:54:57;;;;;;;12.38;8.70;;;;;;;;;;2079377;28;20648;-51
2021/10/15 05:56:17;;;;;;;14.40;8.32;;;;;;;;;;2074187;28;20607;-52
2021/10/15 05:58:53;;;;;;;11.35;8.23;;;;;;;;;;2054812;28;20214;-54
2021/10/15 05:59:54;;;;;;;11.98;8.50;;;;;;;;;;2070149;28;20212;-52
2021/10/15 06:00:54;;;;;;;9.98;8.25;;;;;;;;;;2075468;28;20209;-51
2021/10/15 06:02:00;;;;;;;13.43;8.38;;;;;;;;;;2074975;28;20181;-52
2021/10/15 06:03:01;;;;;;;10.25;8.55;;;;;;;;;;2079878;28;20685;-52
2021/10/15 06:04:31;;;;;;;11.55;8.65;;;;;;;;;;2075115;28;20165;-52